< < Back
Terminal Aerodrome Forecast


Current Version              Previous Versions:   1  2  3  4  5  6  7  8  9  

Terminal Aerodrome Forecast

156
FTUS42 KJAX 201000 AAC
TAFSSI
TAF AMD
KSSI 201007Z 2010/2106 02008KT P6SM -SHRA SCT006 OVC015
      TEMPO 2010/2013 VRB10G20KT 5SM -SHRA OVC006
     FM201700 05011KT P6SM -SHRA OVC025=

Latest METAR

147
SAUS70 KWBC 201600 RRD
MTRSSI
METAR KSSI 201553Z AUTO 04010G18KT 10SM FEW022 FEW095 BKN110 24/21 A2998
RMK AO2 RAB03E41 SLP153 P0011 T02440211


USA.gov is the U.S. government's official web portal to all federal, state and local government web resources and services.